sensor_id;sensor_type;location;lat;lon;timestamp;P1;durP1;ratioP1;P2;durP2;ratioP2
49502;SDS011;35409;48.776;9.204;2022-08-03T00:09:33;3.45;;;3.00;;
49502;SDS011;35409;48.776;9.204;2022-08-03T00:12:43;3.42;;;2.55;;
49502;SDS011;35409;48.776;9.204;2022-08-03T00:18:56;3.35;;;3.05;;
49502;SDS011;35409;48.776;9.204;2022-08-03T00:24:53;5.75;;;3.25;;
49502;SDS011;35409;48.776;9.204;2022-08-03T00:28:20;3.55;;;2.80;;
49502;SDS011;35409;48.776;9.204;2022-08-03T00:31:16;3.17;;;2.95;;
49502;SDS011;35409;48.776;9.204;2022-08-03T00:34:01;3.15;;;2.92;;
49502;SDS011;35409;48.776;9.204;2022-08-03T00:36:38;2.63;;;2.42;;
49502;SDS011;35409;48.776;9.204;2022-08-03T00:39:30;2.97;;;2.78;;
49502;SDS011;35409;48.776;9.204;2022-08-03T00:42:14;2.95;;;2.70;;
49502;SDS011;35409;48.776;9.204;2022-08-03T00:45:38;3.47;;;2.85;;
49502;SDS011;35409;48.776;9.204;2022-08-03T00:48:27;3.63;;;2.72;;
49502;SDS011;35409;48.776;9.204;2022-08-03T00:51:16;3.60;;;2.65;;
49502;SDS011;35409;48.776;9.204;2022-08-03T00:54:13;4.13;;;3.03;;
49502;SDS011;35409;48.776;9.204;2022-08-03T01:00:20;2.95;;;2.75;;
49502;SDS011;35409;48.776;9.204;2022-08-03T01:03:10;3.83;;;3.42;;
49502;SDS011;35409;48.776;9.204;2022-08-03T01:06:10;3.53;;;3.17;;
49502;SDS011;35409;48.776;9.204;2022-08-03T01:09:15;3.58;;;3.08;;
49502;SDS011;35409;48.776;9.204;2022-08-03T01:14:50;3.13;;;2.65;;
49502;SDS011;35409;48.776;9.204;2022-08-03T01:20:51;3.22;;;2.92;;
49502;SDS011;35409;48.776;9.204;2022-08-03T01:33:08;3.65;;;2.75;;
49502;SDS011;35409;48.776;9.204;2022-08-03T01:36:11;4.45;;;2.75;;
49502;SDS011;35409;48.776;9.204;2022-08-03T01:38:54;3.08;;;2.88;;
49502;SDS011;35409;48.776;9.204;2022-08-03T01:42:05;3.60;;;3.15;;
49502;SDS011;35409;48.776;9.204;2022-08-03T01:44:43;3.05;;;2.83;;
49502;SDS011;35409;48.776;9.204;2022-08-03T01:47:27;3.42;;;3.13;;
49502;SDS011;35409;48.776;9.204;2022-08-03T01:53:17;3.05;;;2.70;;
49502;SDS011;35409;48.776;9.204;2022-08-03T01:55:54;3.28;;;2.92;;
49502;SDS011;35409;48.776;9.204;2022-08-03T01:59:02;3.65;;;3.22;;
49502;SDS011;35409;48.776;9.204;2022-08-03T02:01:36;3.33;;;3.03;;
49502;SDS011;35409;48.776;9.204;2022-08-03T02:04:16;3.20;;;3.00;;
49502;SDS011;35409;48.776;9.204;2022-08-03T02:07:00;5.65;;;3.10;;
49502;SDS011;35409;48.776;9.204;2022-08-03T02:09:29;3.13;;;2.60;;
49502;SDS011;35409;48.776;9.204;2022-08-03T02:15:18;3.10;;;2.50;;
49502;SDS011;35409;48.776;9.204;2022-08-03T02:17:58;3.58;;;3.00;;
49502;SDS011;35409;48.776;9.204;2022-08-03T02:20:27;3.10;;;2.85;;
49502;SDS011;35409;48.776;9.204;2022-08-03T02:23:06;3.13;;;2.83;;
49502;SDS011;35409;48.776;9.204;2022-08-03T02:25:50;3.83;;;3.42;;
49502;SDS011;35409;48.776;9.204;2022-08-03T02:28:39;3.03;;;2.83;;
49502;SDS011;35409;48.776;9.204;2022-08-03T02:33:40;2.83;;;2.53;;
49502;SDS011;35409;48.776;9.204;2022-08-03T02:36:19;2.75;;;2.55;;
49502;SDS011;35409;48.776;9.204;2022-08-03T02:41:50;3.45;;;3.10;;
49502;SDS011;35409;48.776;9.204;2022-08-03T02:44:37;3.67;;;3.35;;
49502;SDS011;35409;48.776;9.204;2022-08-03T02:50:16;5.30;;;2.63;;
49502;SDS011;35409;48.776;9.204;2022-08-03T02:52:46;3.78;;;2.97;;
49502;SDS011;35409;48.776;9.204;2022-08-03T02:55:30;2.87;;;2.67;;
49502;SDS011;35409;48.776;9.204;2022-08-03T02:57:59;3.83;;;3.13;;
49502;SDS011;35409;48.776;9.204;2022-08-03T03:00:30;3.40;;;3.03;;
49502;SDS011;35409;48.776;9.204;2022-08-03T03:03:00;3.30;;;3.00;;
49502;SDS011;35409;48.776;9.204;2022-08-03T03:05:33;3.40;;;3.10;;
49502;SDS011;35409;48.776;9.204;2022-08-03T03:08:33;3.38;;;3.13;;
49502;SDS011;35409;48.776;9.204;2022-08-03T03:11:06;4.13;;;3.65;;
49502;SDS011;35409;48.776;9.204;2022-08-03T03:14:04;3.80;;;3.38;;
49502;SDS011;35409;48.776;9.204;2022-08-03T03:16:51;4.18;;;3.78;;
49502;SDS011;35409;48.776;9.204;2022-08-03T03:19:42;3.63;;;3.30;;
49502;SDS011;35409;48.776;9.204;2022-08-03T03:22:34;4.43;;;3.78;;
49502;SDS011;35409;48.776;9.204;2022-08-03T03:25:10;4.75;;;3.58;;
49502;SDS011;35409;48.776;9.204;2022-08-03T03:28:19;4.40;;;4.00;;
49502;SDS011;35409;48.776;9.204;2022-08-03T03:31:12;4.30;;;3.55;;
49502;SDS011;35409;48.776;9.204;2022-08-03T03:34:09;4.55;;;3.65;;
49502;SDS011;35409;48.776;9.204;2022-08-03T03:36:40;6.53;;;3.90;;
49502;SDS011;35409;48.776;9.204;2022-08-03T03:39:17;6.63;;;4.55;;
49502;SDS011;35409;48.776;9.204;2022-08-03T03:42:05;6.07;;;4.60;;
49502;SDS011;35409;48.776;9.204;2022-08-03T03:44:41;4.18;;;3.78;;
49502;SDS011;35409;48.776;9.204;2022-08-03T03:47:15;7.03;;;3.78;;
49502;SDS011;35409;48.776;9.204;2022-08-03T03:49:44;7.20;;;4.35;;
49502;SDS011;35409;48.776;9.204;2022-08-03T03:55:59;7.00;;;4.25;;
49502;SDS011;35409;48.776;9.204;2022-08-03T03:58:39;6.68;;;4.53;;
49502;SDS011;35409;48.776;9.204;2022-08-03T04:01:54;5.28;;;4.13;;
49502;SDS011;35409;48.776;9.204;2022-08-03T04:04:59;4.65;;;4.18;;
49502;SDS011;35409;48.776;9.204;2022-08-03T04:08:04;4.75;;;4.35;;
49502;SDS011;35409;48.776;9.204;2022-08-03T04:11:22;4.65;;;4.10;;
49502;SDS011;35409;48.776;9.204;2022-08-03T04:14:05;4.43;;;4.05;;
49502;SDS011;35409;48.776;9.204;2022-08-03T04:16:48;4.85;;;4.30;;
49502;SDS011;35409;48.776;9.204;2022-08-03T04:19:37;6.13;;;4.43;;
49502;SDS011;35409;48.776;9.204;2022-08-03T04:22:54;5.07;;;3.78;;
49502;SDS011;35409;48.776;9.204;2022-08-03T04:25:40;5.93;;;4.88;;
49502;SDS011;35409;48.776;9.204;2022-08-03T04:28:29;7.07;;;4.88;;
49502;SDS011;35409;48.776;9.204;2022-08-03T04:31:18;6.50;;;4.43;;
49502;SDS011;35409;48.776;9.204;2022-08-03T04:34:08;4.60;;;4.20;;
49502;SDS011;35409;48.776;9.204;2022-08-03T04:36:57;6.63;;;4.72;;
49502;SDS011;35409;48.776;9.204;2022-08-03T04:39:37;4.07;;;3.67;;
49502;SDS011;35409;48.776;9.204;2022-08-03T04:42:11;5.05;;;4.60;;
49502;SDS011;35409;48.776;9.204;2022-08-03T04:44:52;5.35;;;4.85;;
49502;SDS011;35409;48.776;9.204;2022-08-03T04:47:52;6.40;;;5.15;;
49502;SDS011;35409;48.776;9.204;2022-08-03T04:53:38;7.32;;;4.60;;
49502;SDS011;35409;48.776;9.204;2022-08-03T04:56:37;4.65;;;4.25;;
49502;SDS011;35409;48.776;9.204;2022-08-03T04:59:40;4.47;;;4.10;;
49502;SDS011;35409;48.776;9.204;2022-08-03T05:02:32;6.75;;;4.28;;
49502;SDS011;35409;48.776;9.204;2022-08-03T05:05:14;6.85;;;4.35;;
49502;SDS011;35409;48.776;9.204;2022-08-03T05:07:51;4.45;;;4.05;;
49502;SDS011;35409;48.776;9.204;2022-08-03T05:13:36;5.03;;;4.53;;
49502;SDS011;35409;48.776;9.204;2022-08-03T05:16:07;5.22;;;4.80;;
49502;SDS011;35409;48.776;9.204;2022-08-03T05:18:50;5.07;;;4.57;;
49502;SDS011;35409;48.776;9.204;2022-08-03T05:21:23;4.50;;;4.10;;
49502;SDS011;35409;48.776;9.204;2022-08-03T05:24:19;5.03;;;4.63;;
49502;SDS011;35409;48.776;9.204;2022-08-03T05:27:05;4.82;;;4.13;;
49502;SDS011;35409;48.776;9.204;2022-08-03T05:29:41;5.28;;;4.72;;
49502;SDS011;35409;48.776;9.204;2022-08-03T05:32:09;5.00;;;4.50;;
49502;SDS011;35409;48.776;9.204;2022-08-03T05:35:16;8.38;;;4.90;;
49502;SDS011;35409;48.776;9.204;2022-08-03T05:37:48;5.15;;;4.65;;
49502;SDS011;35409;48.776;9.204;2022-08-03T05:40:21;5.32;;;4.75;;
49502;SDS011;35409;48.776;9.204;2022-08-03T05:42:56;6.85;;;4.63;;
49502;SDS011;35409;48.776;9.204;2022-08-03T05:48:13;5.90;;;4.97;;
49502;SDS011;35409;48.776;9.204;2022-08-03T05:50:50;5.72;;;4.90;;
49502;SDS011;35409;48.776;9.204;2022-08-03T05:53:31;5.00;;;4.35;;
49502;SDS011;35409;48.776;9.204;2022-08-03T05:56:23;5.40;;;4.30;;
49502;SDS011;35409;48.776;9.204;2022-08-03T05:59:30;6.43;;;4.60;;
49502;SDS011;35409;48.776;9.204;2022-08-03T06:02:11;5.03;;;4.28;;
49502;SDS011;35409;48.776;9.204;2022-08-03T06:04:52;5.47;;;4.72;;
49502;SDS011;35409;48.776;9.204;2022-08-03T06:07:38;6.50;;;4.43;;
49502;SDS011;35409;48.776;9.204;2022-08-03T06:10:22;7.38;;;4.88;;
49502;SDS011;35409;48.776;9.204;2022-08-03T06:13:08;5.88;;;4.80;;
49502;SDS011;35409;48.776;9.204;2022-08-03T06:15:43;5.90;;;3.83;;
49502;SDS011;35409;48.776;9.204;2022-08-03T06:18:36;4.93;;;3.90;;
49502;SDS011;35409;48.776;9.204;2022-08-03T06:24:03;4.82;;;4.32;;
49502;SDS011;35409;48.776;9.204;2022-08-03T06:26:38;4.72;;;4.22;;
49502;SDS011;35409;48.776;9.204;2022-08-03T06:29:03;4.65;;;4.25;;
49502;SDS011;35409;48.776;9.204;2022-08-03T06:31:29;6.03;;;4.05;;
49502;SDS011;35409;48.776;9.204;2022-08-03T06:33:55;5.35;;;4.53;;
49502;SDS011;35409;48.776;9.204;2022-08-03T06:36:20;6.30;;;4.38;;
49502;SDS011;35409;48.776;9.204;2022-08-03T06:38:47;4.70;;;4.18;;
49502;SDS011;35409;48.776;9.204;2022-08-03T06:41:28;6.45;;;4.15;;
49502;SDS011;35409;48.776;9.204;2022-08-03T06:43:54;4.43;;;3.65;;
49502;SDS011;35409;48.776;9.204;2022-08-03T06:46:20;8.98;;;4.75;;
49502;SDS011;35409;48.776;9.204;2022-08-03T06:48:46;6.20;;;3.72;;
49502;SDS011;35409;48.776;9.204;2022-08-03T06:51:12;6.43;;;4.18;;
49502;SDS011;35409;48.776;9.204;2022-08-03T06:53:38;9.20;;;4.38;;
49502;SDS011;35409;48.776;9.204;2022-08-03T06:56:04;6.22;;;3.97;;
49502;SDS011;35409;48.776;9.204;2022-08-03T06:58:30;7.00;;;3.97;;
49502;SDS011;35409;48.776;9.204;2022-08-03T07:00:56;5.07;;;3.72;;
49502;SDS011;35409;48.776;9.204;2022-08-03T07:03:22;5.28;;;4.28;;
49502;SDS011;35409;48.776;9.204;2022-08-03T07:05:47;5.13;;;3.78;;
49502;SDS011;35409;48.776;9.204;2022-08-03T07:08:13;6.20;;;3.63;;
49502;SDS011;35409;48.776;9.204;2022-08-03T07:10:39;6.05;;;3.80;;
49502;SDS011;35409;48.776;9.204;2022-08-03T07:13:05;5.70;;;3.72;;
49502;SDS011;35409;48.776;9.204;2022-08-03T07:15:31;11.77;;;3.97;;
49502;SDS011;35409;48.776;9.204;2022-08-03T07:17:58;6.82;;;3.85;;
49502;SDS011;35409;48.776;9.204;2022-08-03T07:20:23;5.20;;;3.80;;
49502;SDS011;35409;48.776;9.204;2022-08-03T07:22:49;6.95;;;4.18;;
49502;SDS011;35409;48.776;9.204;2022-08-03T07:25:15;6.90;;;4.22;;
49502;SDS011;35409;48.776;9.204;2022-08-03T07:27:43;4.68;;;4.05;;
49502;SDS011;35409;48.776;9.204;2022-08-03T07:30:10;7.53;;;4.20;;
49502;SDS011;35409;48.776;9.204;2022-08-03T07:32:36;5.93;;;3.80;;
49502;SDS011;35409;48.776;9.204;2022-08-03T07:35:03;5.07;;;3.67;;
49502;SDS011;35409;48.776;9.204;2022-08-03T07:37:29;3.95;;;3.55;;
49502;SDS011;35409;48.776;9.204;2022-08-03T07:39:55;5.65;;;3.47;;
49502;SDS011;35409;48.776;9.204;2022-08-03T07:42:21;4.38;;;3.58;;
49502;SDS011;35409;48.776;9.204;2022-08-03T07:44:53;3.53;;;3.13;;
49502;SDS011;35409;48.776;9.204;2022-08-03T07:47:23;4.63;;;3.15;;
49502;SDS011;35409;48.776;9.204;2022-08-03T07:49:50;3.88;;;2.00;;
49502;SDS011;35409;48.776;9.204;2022-08-03T07:52:19;2.63;;;2.40;;
49502;SDS011;35409;48.776;9.204;2022-08-03T07:55:04;5.90;;;2.10;;
49502;SDS011;35409;48.776;9.204;2022-08-03T07:57:31;3.35;;;2.22;;
49502;SDS011;35409;48.776;9.204;2022-08-03T07:59:57;9.40;;;2.80;;
49502;SDS011;35409;48.776;9.204;2022-08-03T08:02:23;3.92;;;2.72;;
49502;SDS011;35409;48.776;9.204;2022-08-03T08:04:49;5.00;;;2.95;;
49502;SDS011;35409;48.776;9.204;2022-08-03T08:07:14;2.15;;;1.95;;
49502;SDS011;35409;48.776;9.204;2022-08-03T08:09:41;3.03;;;2.20;;
49502;SDS011;35409;48.776;9.204;2022-08-03T08:12:06;3.35;;;1.90;;
49502;SDS011;35409;48.776;9.204;2022-08-03T08:14:33;3.17;;;2.13;;
49502;SDS011;35409;48.776;9.204;2022-08-03T08:16:59;2.97;;;1.90;;
49502;SDS011;35409;48.776;9.204;2022-08-03T08:19:25;2.08;;;1.92;;
49502;SDS011;35409;48.776;9.204;2022-08-03T08:21:51;2.85;;;1.60;;
49502;SDS011;35409;48.776;9.204;2022-08-03T08:24:16;1.92;;;1.70;;
49502;SDS011;35409;48.776;9.204;2022-08-03T08:26:42;2.08;;;1.50;;
49502;SDS011;35409;48.776;9.204;2022-08-03T08:29:07;2.00;;;1.83;;
49502;SDS011;35409;48.776;9.204;2022-08-03T08:31:33;4.22;;;1.67;;
49502;SDS011;35409;48.776;9.204;2022-08-03T08:33:59;2.30;;;1.60;;
49502;SDS011;35409;48.776;9.204;2022-08-03T08:36:29;2.95;;;1.95;;
49502;SDS011;35409;48.776;9.204;2022-08-03T08:39:01;3.08;;;1.70;;
49502;SDS011;35409;48.776;9.204;2022-08-03T08:41:27;4.40;;;1.80;;
49502;SDS011;35409;48.776;9.204;2022-08-03T08:43:53;2.00;;;1.38;;
49502;SDS011;35409;48.776;9.204;2022-08-03T08:46:19;1.73;;;1.50;;
49502;SDS011;35409;48.776;9.204;2022-08-03T08:48:45;2.53;;;1.10;;
49502;SDS011;35409;48.776;9.204;2022-08-03T08:51:13;2.00;;;1.25;;
49502;SDS011;35409;48.776;9.204;2022-08-03T08:53:43;3.55;;;1.30;;
49502;SDS011;35409;48.776;9.204;2022-08-03T08:56:12;1.52;;;1.42;;
49502;SDS011;35409;48.776;9.204;2022-08-03T08:58:48;2.42;;;1.70;;
49502;SDS011;35409;48.776;9.204;2022-08-03T09:01:17;1.80;;;1.33;;
49502;SDS011;35409;48.776;9.204;2022-08-03T09:03:44;2.30;;;1.90;;
49502;SDS011;35409;48.776;9.204;2022-08-03T09:06:10;5.03;;;1.70;;
49502;SDS011;35409;48.776;9.204;2022-08-03T09:08:36;2.17;;;1.20;;
49502;SDS011;35409;48.776;9.204;2022-08-03T09:11:01;1.52;;;1.40;;
49502;SDS011;35409;48.776;9.204;2022-08-03T09:13:28;1.73;;;1.63;;
49502;SDS011;35409;48.776;9.204;2022-08-03T09:16:14;5.05;;;1.63;;
49502;SDS011;35409;48.776;9.204;2022-08-03T09:23:45;2.28;;;1.27;;
49502;SDS011;35409;48.776;9.204;2022-08-03T09:26:35;4.20;;;1.65;;
49502;SDS011;35409;48.776;9.204;2022-08-03T09:33:59;2.45;;;1.60;;
49502;SDS011;35409;48.776;9.204;2022-08-03T09:36:35;5.50;;;1.95;;
49502;SDS011;35409;48.776;9.204;2022-08-03T09:39:03;2.40;;;1.77;;
49502;SDS011;35409;48.776;9.204;2022-08-03T09:41:37;2.05;;;1.65;;
49502;SDS011;35409;48.776;9.204;2022-08-03T09:44:10;3.58;;;1.65;;
49502;SDS011;35409;48.776;9.204;2022-08-03T09:46:55;4.60;;;1.90;;
49502;SDS011;35409;48.776;9.204;2022-08-03T09:49:21;3.30;;;1.50;;
49502;SDS011;35409;48.776;9.204;2022-08-03T09:51:47;2.97;;;1.73;;
49502;SDS011;35409;48.776;9.204;2022-08-03T09:54:24;1.65;;;1.48;;
49502;SDS011;35409;48.776;9.204;2022-08-03T09:56:51;3.97;;;1.30;;
49502;SDS011;35409;48.776;9.204;2022-08-03T09:59:28;4.00;;;1.33;;
49502;SDS011;35409;48.776;9.204;2022-08-03T10:01:55;4.13;;;1.63;;
49502;SDS011;35409;48.776;9.204;2022-08-03T10:04:22;4.03;;;1.42;;
49502;SDS011;35409;48.776;9.204;2022-08-03T10:09:55;2.47;;;1.40;;
49502;SDS011;35409;48.776;9.204;2022-08-03T10:12:23;2.50;;;1.75;;
49502;SDS011;35409;48.776;9.204;2022-08-03T10:14:49;2.78;;;1.30;;
49502;SDS011;35409;48.776;9.204;2022-08-03T10:17:16;5.93;;;1.40;;
49502;SDS011;35409;48.776;9.204;2022-08-03T10:19:42;4.18;;;1.63;;
49502;SDS011;35409;48.776;9.204;2022-08-03T10:24:39;1.50;;;1.40;;
49502;SDS011;35409;48.776;9.204;2022-08-03T10:27:31;2.03;;;1.50;;
49502;SDS011;35409;48.776;9.204;2022-08-03T10:30:10;2.70;;;1.60;;
49502;SDS011;35409;48.776;9.204;2022-08-03T10:32:40;1.50;;;1.40;;
49502;SDS011;35409;48.776;9.204;2022-08-03T10:35:18;2.17;;;1.70;;
49502;SDS011;35409;48.776;9.204;2022-08-03T10:40:16;3.42;;;1.40;;
49502;SDS011;35409;48.776;9.204;2022-08-03T10:42:44;1.80;;;1.70;;
49502;SDS011;35409;48.776;9.204;2022-08-03T10:45:23;3.40;;;1.95;;
49502;SDS011;35409;48.776;9.204;2022-08-03T10:47:51;3.63;;;1.65;;
49502;SDS011;35409;48.776;9.204;2022-08-03T10:50:18;1.40;;;1.30;;
49502;SDS011;35409;48.776;9.204;2022-08-03T10:52:53;3.40;;;1.38;;
49502;SDS011;35409;48.776;9.204;2022-08-03T11:01:06;3.40;;;1.40;;
49502;SDS011;35409;48.776;9.204;2022-08-03T11:03:33;2.63;;;2.08;;
49502;SDS011;35409;48.776;9.204;2022-08-03T11:06:19;4.32;;;1.60;;
49502;SDS011;35409;48.776;9.204;2022-08-03T11:08:47;5.85;;;1.85;;
49502;SDS011;35409;48.776;9.204;2022-08-03T11:16:33;4.90;;;1.50;;
49502;SDS011;35409;48.776;9.204;2022-08-03T11:19:05;4.80;;;2.13;;
49502;SDS011;35409;48.776;9.204;2022-08-03T11:27:18;2.80;;;1.80;;
49502;SDS011;35409;48.776;9.204;2022-08-03T11:29:55;7.32;;;1.80;;
49502;SDS011;35409;48.776;9.204;2022-08-03T11:35:06;2.95;;;1.50;;
49502;SDS011;35409;48.776;9.204;2022-08-03T11:37:36;1.73;;;1.63;;
49502;SDS011;35409;48.776;9.204;2022-08-03T11:48:33;2.45;;;1.77;;
49502;SDS011;35409;48.776;9.204;2022-08-03T11:51:02;2.47;;;1.95;;
49502;SDS011;35409;48.776;9.204;2022-08-03T11:53:29;3.33;;;1.67;;
49502;SDS011;35409;48.776;9.204;2022-08-03T11:55:59;3.00;;;1.60;;
49502;SDS011;35409;48.776;9.204;2022-08-03T11:58:29;2.42;;;1.50;;
49502;SDS011;35409;48.776;9.204;2022-08-03T12:01:05;1.33;;;1.23;;
49502;SDS011;35409;48.776;9.204;2022-08-03T12:03:32;2.42;;;1.90;;
49502;SDS011;35409;48.776;9.204;2022-08-03T12:05:58;2.00;;;1.90;;
49502;SDS011;35409;48.776;9.204;2022-08-03T12:08:30;1.90;;;1.80;;
49502;SDS011;35409;48.776;9.204;2022-08-03T12:11:01;1.67;;;1.58;;
49502;SDS011;35409;48.776;9.204;2022-08-03T12:13:43;1.80;;;1.35;;
49502;SDS011;35409;48.776;9.204;2022-08-03T12:16:18;1.88;;;1.77;;
49502;SDS011;35409;48.776;9.204;2022-08-03T12:18:58;2.15;;;1.48;;
49502;SDS011;35409;48.776;9.204;2022-08-03T12:23:55;1.60;;;1.42;;
49502;SDS011;35409;48.776;9.204;2022-08-03T12:26:24;3.22;;;1.77;;
49502;SDS011;35409;48.776;9.204;2022-08-03T12:28:50;1.85;;;1.70;;
49502;SDS011;35409;48.776;9.204;2022-08-03T12:31:16;1.88;;;1.50;;
49502;SDS011;35409;48.776;9.204;2022-08-03T12:33:56;2.03;;;1.80;;
49502;SDS011;35409;48.776;9.204;2022-08-03T12:36:31;1.90;;;1.80;;
49502;SDS011;35409;48.776;9.204;2022-08-03T12:38:59;1.80;;;1.65;;
49502;SDS011;35409;48.776;9.204;2022-08-03T12:41:30;2.92;;;1.50;;
49502;SDS011;35409;48.776;9.204;2022-08-03T12:44:04;1.80;;;1.70;;
49502;SDS011;35409;48.776;9.204;2022-08-03T12:46:31;2.17;;;1.40;;
49502;SDS011;35409;48.776;9.204;2022-08-03T12:49:03;3.63;;;1.65;;
49502;SDS011;35409;48.776;9.204;2022-08-03T12:51:56;2.20;;;1.65;;
49502;SDS011;35409;48.776;9.204;2022-08-03T12:54:22;4.22;;;1.98;;
49502;SDS011;35409;48.776;9.204;2022-08-03T12:56:59;2.30;;;1.58;;
49502;SDS011;35409;48.776;9.204;2022-08-03T12:59:41;1.98;;;1.65;;
49502;SDS011;35409;48.776;9.204;2022-08-03T13:02:14;3.38;;;1.63;;
49502;SDS011;35409;48.776;9.204;2022-08-03T13:04:41;3.08;;;1.83;;
49502;SDS011;35409;48.776;9.204;2022-08-03T13:07:08;3.65;;;1.60;;
49502;SDS011;35409;48.776;9.204;2022-08-03T13:09:42;2.85;;;1.65;;
49502;SDS011;35409;48.776;9.204;2022-08-03T13:12:18;1.65;;;1.40;;
49502;SDS011;35409;48.776;9.204;2022-08-03T13:14:46;3.30;;;1.67;;
49502;SDS011;35409;48.776;9.204;2022-08-03T13:17:14;2.13;;;1.98;;
49502;SDS011;35409;48.776;9.204;2022-08-03T13:19:43;2.17;;;2.00;;
49502;SDS011;35409;48.776;9.204;2022-08-03T13:22:14;1.77;;;1.65;;
49502;SDS011;35409;48.776;9.204;2022-08-03T13:24:44;1.80;;;1.70;;
49502;SDS011;35409;48.776;9.204;2022-08-03T13:27:10;4.43;;;1.90;;
49502;SDS011;35409;48.776;9.204;2022-08-03T13:29:36;2.90;;;1.80;;
49502;SDS011;35409;48.776;9.204;2022-08-03T13:32:02;8.80;;;1.50;;
49502;SDS011;35409;48.776;9.204;2022-08-03T13:34:28;3.47;;;1.95;;
49502;SDS011;35409;48.776;9.204;2022-08-03T13:36:54;2.22;;;2.03;;
49502;SDS011;35409;48.776;9.204;2022-08-03T13:39:20;1.88;;;1.50;;
49502;SDS011;35409;48.776;9.204;2022-08-03T13:41:45;2.47;;;2.03;;
49502;SDS011;35409;48.776;9.204;2022-08-03T13:44:11;3.45;;;1.73;;
49502;SDS011;35409;48.776;9.204;2022-08-03T13:46:37;3.72;;;1.80;;
49502;SDS011;35409;48.776;9.204;2022-08-03T13:49:03;4.80;;;1.60;;
49502;SDS011;35409;48.776;9.204;2022-08-03T13:51:29;4.80;;;2.05;;
49502;SDS011;35409;48.776;9.204;2022-08-03T13:53:55;1.90;;;1.77;;
49502;SDS011;35409;48.776;9.204;2022-08-03T13:56:23;1.45;;;1.45;;
49502;SDS011;35409;48.776;9.204;2022-08-03T13:58:52;4.25;;;1.55;;
49502;SDS011;35409;48.776;9.204;2022-08-03T14:01:18;3.17;;;1.65;;
49502;SDS011;35409;48.776;9.204;2022-08-03T14:03:43;2.78;;;1.58;;
49502;SDS011;35409;48.776;9.204;2022-08-03T14:06:12;2.53;;;1.60;;
49502;SDS011;35409;48.776;9.204;2022-08-03T14:08:38;4.20;;;1.88;;
49502;SDS011;35409;48.776;9.204;2022-08-03T14:11:04;3.22;;;1.60;;
49502;SDS011;35409;48.776;9.204;2022-08-03T14:13:30;1.88;;;1.77;;
49502;SDS011;35409;48.776;9.204;2022-08-03T14:15:55;2.10;;;1.73;;
49502;SDS011;35409;48.776;9.204;2022-08-03T14:18:21;2.10;;;1.70;;
49502;SDS011;35409;48.776;9.204;2022-08-03T14:20:48;2.42;;;2.03;;
49502;SDS011;35409;48.776;9.204;2022-08-03T14:23:14;2.22;;;1.70;;
49502;SDS011;35409;48.776;9.204;2022-08-03T14:25:39;2.60;;;1.65;;
49502;SDS011;35409;48.776;9.204;2022-08-03T14:28:06;1.73;;;1.63;;
49502;SDS011;35409;48.776;9.204;2022-08-03T14:30:32;2.20;;;1.42;;
49502;SDS011;35409;48.776;9.204;2022-08-03T14:32:58;5.45;;;1.50;;
49502;SDS011;35409;48.776;9.204;2022-08-03T14:35:24;3.05;;;1.85;;
49502;SDS011;35409;48.776;9.204;2022-08-03T14:37:50;2.00;;;1.90;;
49502;SDS011;35409;48.776;9.204;2022-08-03T14:40:16;2.03;;;1.90;;
49502;SDS011;35409;48.776;9.204;2022-08-03T14:42:45;2.08;;;1.90;;
49502;SDS011;35409;48.776;9.204;2022-08-03T14:45:10;3.15;;;1.60;;
49502;SDS011;35409;48.776;9.204;2022-08-03T14:47:37;1.92;;;1.80;;
49502;SDS011;35409;48.776;9.204;2022-08-03T14:50:03;3.28;;;1.70;;
49502;SDS011;35409;48.776;9.204;2022-08-03T14:52:30;2.15;;;1.75;;
49502;SDS011;35409;48.776;9.204;2022-08-03T14:54:56;1.50;;;1.40;;
49502;SDS011;35409;48.776;9.204;2022-08-03T14:57:22;3.15;;;1.83;;
49502;SDS011;35409;48.776;9.204;2022-08-03T14:59:48;1.88;;;1.77;;
49502;SDS011;35409;48.776;9.204;2022-08-03T15:02:14;3.50;;;1.63;;
49502;SDS011;35409;48.776;9.204;2022-08-03T15:04:40;2.65;;;1.90;;
49502;SDS011;35409;48.776;9.204;2022-08-03T15:07:07;1.75;;;1.55;;
49502;SDS011;35409;48.776;9.204;2022-08-03T15:09:34;1.58;;;1.48;;
49502;SDS011;35409;48.776;9.204;2022-08-03T15:12:02;2.03;;;1.60;;
49502;SDS011;35409;48.776;9.204;2022-08-03T15:16:57;2.08;;;1.90;;
49502;SDS011;35409;48.776;9.204;2022-08-03T15:19:23;3.67;;;1.55;;
49502;SDS011;35409;48.776;9.204;2022-08-03T15:21:49;3.10;;;1.52;;
49502;SDS011;35409;48.776;9.204;2022-08-03T15:24:16;1.80;;;1.70;;
49502;SDS011;35409;48.776;9.204;2022-08-03T15:26:42;5.07;;;1.75;;
49502;SDS011;35409;48.776;9.204;2022-08-03T15:29:08;2.38;;;1.50;;
49502;SDS011;35409;48.776;9.204;2022-08-03T15:31:33;3.78;;;2.00;;
49502;SDS011;35409;48.776;9.204;2022-08-03T15:33:59;2.47;;;1.70;;
49502;SDS011;35409;48.776;9.204;2022-08-03T15:36:25;1.73;;;1.63;;
49502;SDS011;35409;48.776;9.204;2022-08-03T15:38:50;4.28;;;2.10;;
49502;SDS011;35409;48.776;9.204;2022-08-03T15:41:17;1.67;;;1.50;;
49502;SDS011;35409;48.776;9.204;2022-08-03T15:43:42;2.83;;;1.75;;
49502;SDS011;35409;48.776;9.204;2022-08-03T15:46:10;2.42;;;1.65;;
49502;SDS011;35409;48.776;9.204;2022-08-03T15:48:37;2.03;;;1.75;;
49502;SDS011;35409;48.776;9.204;2022-08-03T15:51:03;2.03;;;1.60;;
49502;SDS011;35409;48.776;9.204;2022-08-03T15:53:29;1.90;;;1.80;;
49502;SDS011;35409;48.776;9.204;2022-08-03T15:55:55;3.22;;;1.50;;
49502;SDS011;35409;48.776;9.204;2022-08-03T15:58:21;3.17;;;1.55;;
49502;SDS011;35409;48.776;9.204;2022-08-03T16:00:46;3.55;;;1.75;;
49502;SDS011;35409;48.776;9.204;2022-08-03T16:03:12;2.17;;;1.80;;
49502;SDS011;35409;48.776;9.204;2022-08-03T16:05:38;1.83;;;1.73;;
49502;SDS011;35409;48.776;9.204;2022-08-03T16:08:03;1.48;;;1.38;;
49502;SDS011;35409;48.776;9.204;2022-08-03T16:10:29;1.55;;;1.40;;
49502;SDS011;35409;48.776;9.204;2022-08-03T16:12:55;2.65;;;1.80;;
49502;SDS011;35409;48.776;9.204;2022-08-03T16:15:24;2.60;;;1.63;;
49502;SDS011;35409;48.776;9.204;2022-08-03T16:17:50;1.95;;;1.80;;
49502;SDS011;35409;48.776;9.204;2022-08-03T16:20:15;2.50;;;1.38;;
49502;SDS011;35409;48.776;9.204;2022-08-03T16:22:45;2.05;;;1.70;;
49502;SDS011;35409;48.776;9.204;2022-08-03T16:25:12;2.63;;;1.70;;
49502;SDS011;35409;48.776;9.204;2022-08-03T16:27:39;1.92;;;1.80;;
49502;SDS011;35409;48.776;9.204;2022-08-03T16:30:05;1.73;;;1.60;;
49502;SDS011;35409;48.776;9.204;2022-08-03T16:32:33;2.67;;;1.95;;
49502;SDS011;35409;48.776;9.204;2022-08-03T16:34:59;2.25;;;1.83;;
49502;SDS011;35409;48.776;9.204;2022-08-03T16:37:25;1.88;;;1.77;;
49502;SDS011;35409;48.776;9.204;2022-08-03T16:39:51;1.70;;;1.60;;
49502;SDS011;35409;48.776;9.204;2022-08-03T16:42:17;1.48;;;1.48;;
49502;SDS011;35409;48.776;9.204;2022-08-03T16:44:42;1.45;;;1.35;;
49502;SDS011;35409;48.776;9.204;2022-08-03T16:47:08;1.80;;;1.70;;
49502;SDS011;35409;48.776;9.204;2022-08-03T16:49:34;2.22;;;2.00;;
49502;SDS011;35409;48.776;9.204;2022-08-03T16:51:59;2.17;;;1.88;;
49502;SDS011;35409;48.776;9.204;2022-08-03T16:54:25;4.93;;;1.58;;
49502;SDS011;35409;48.776;9.204;2022-08-03T16:56:51;3.55;;;1.40;;
49502;SDS011;35409;48.776;9.204;2022-08-03T16:59:17;1.55;;;1.45;;
49502;SDS011;35409;48.776;9.204;2022-08-03T17:01:43;1.52;;;1.40;;
49502;SDS011;35409;48.776;9.204;2022-08-03T17:04:11;2.00;;;1.90;;
49502;SDS011;35409;48.776;9.204;2022-08-03T17:06:38;3.22;;;1.67;;
49502;SDS011;35409;48.776;9.204;2022-08-03T17:09:09;2.97;;;1.52;;
49502;SDS011;35409;48.776;9.204;2022-08-03T17:11:40;1.85;;;1.75;;
49502;SDS011;35409;48.776;9.204;2022-08-03T17:14:07;2.67;;;1.73;;
49502;SDS011;35409;48.776;9.204;2022-08-03T17:16:33;1.65;;;1.55;;
49502;SDS011;35409;48.776;9.204;2022-08-03T17:19:02;1.70;;;1.60;;
49502;SDS011;35409;48.776;9.204;2022-08-03T17:21:30;1.88;;;1.67;;
49502;SDS011;35409;48.776;9.204;2022-08-03T17:26:48;3.25;;;2.00;;